Time;durP1;ratioP1;P1;durP2;ratioP2;P2;SDS_P1;SDS_P2;PMS_P1;PMS_P2;Temp;Humidity;BMP_temperature;BMP_pressure;BME280_temperature;BME280_humidity;BME280_pressure;Samples;Min_cycle;Max_cycle;Signal;HPM_P1;HPM_P2
2022/12/14 00:02:46;;;;;;;8.50;7.80;;;;;;;21.28;31.30;94719.34;6198634;28;104367;-63
2022/12/14 00:05:50;;;;;;;8.80;8.10;;;;;;;21.27;31.39;94713.25;6209497;28;103135;-63
2022/12/14 00:08:56;;;;;;;8.37;7.67;;;;;;;21.26;31.42;94717.00;6194105;28;103439;-63
2022/12/14 00:11:59;;;;;;;7.23;6.73;;;;;;;21.27;31.17;94709.78;6184625;28;103186;-63
2022/12/14 00:15:04;;;;;;;8.03;7.43;;;;;;;21.24;31.24;94716.53;6193473;28;103140;-63
2022/12/14 00:18:07;;;;;;;8.10;7.47;;;;;;;21.26;31.59;94724.19;6213455;28;103013;-63
2022/12/14 00:21:13;;;;;;;7.90;7.30;;;;;;;21.23;31.44;94716.81;6213254;28;103128;-63
2022/12/14 00:24:16;;;;;;;7.47;6.87;;;;;;;21.19;31.14;94717.44;6204868;28;103976;-63
2022/12/14 00:27:19;;;;;;;7.97;7.37;;;;;;;21.24;31.24;94727.16;6204684;28;103427;-63
2022/12/14 00:30:23;;;;;;;8.37;7.67;;;;;;;21.20;31.15;94726.22;6188717;28;103155;-63
2022/12/14 00:33:26;;;;;;;8.10;7.50;;;;;;;21.23;30.91;94722.16;6193912;28;103370;-63
2022/12/14 00:36:30;;;;;;;7.30;6.70;;;;;;;21.21;31.15;94720.59;6203393;28;104291;-62
2022/12/14 00:39:34;;;;;;;7.80;7.20;;;;;;;21.19;31.19;94714.78;6212953;28;103203;-62
2022/12/14 00:42:37;;;;;;;8.20;7.50;;;;;;;21.20;31.26;94710.25;6212928;28;103268;-62
2022/12/14 00:45:43;;;;;;;7.27;6.67;;;;;;;21.21;30.81;94714.47;6212674;28;103603;-61
2022/12/14 00:48:47;;;;;;;6.80;6.20;;;;;;;21.19;30.69;94719.31;6202276;28;103896;-63
2022/12/14 00:51:50;;;;;;;7.53;6.93;;;;;;;21.19;31.02;94719.31;6212654;28;103081;-62
2022/12/14 00:54:53;;;;;;;6.43;5.93;;;;;;;21.18;31.10;94721.19;6212453;28;103224;-62
2022/12/14 00:57:56;;;;;;;6.60;6.10;;;;;;;21.18;31.03;94729.19;6207923;28;103354;-62
2022/12/14 01:01:02;;;;;;;6.10;5.67;;;;;;;21.17;30.84;94722.28;6206700;28;105187;-61
2022/12/14 01:04:18;;;;;;;6.60;6.10;;;;;;;21.17;30.82;94727.63;6212038;28;103245;-61
2022/12/14 01:07:21;;;;;;;6.20;5.70;;;;;;;21.18;30.95;94723.06;6212826;28;104327;-62
2022/12/14 01:10:24;;;;;;;5.97;5.57;;;;;;;21.17;31.10;94714.31;6201579;28;103133;-63
2022/12/14 01:13:27;;;;;;;6.80;6.30;;;;;;;21.17;31.10;94718.81;6211926;28;103660;-63
2022/12/14 01:16:32;;;;;;;5.70;5.30;;;;;;;21.16;30.94;94725.22;6196664;28;105620;-62
2022/12/14 01:19:35;;;;;;;6.10;5.50;;;;;;;21.17;30.84;94729.47;6212298;28;104263;-62
2022/12/14 01:22:38;;;;;;;6.40;5.90;;;;;;;21.15;30.93;94723.66;6202748;28;104295;-62
2022/12/14 01:25:41;;;;;;;5.83;5.43;;;;;;;21.17;31.10;94727.63;6212683;28;103054;-62
2022/12/14 01:28:46;;;;;;;5.80;5.30;;;;;;;21.15;30.95;94726.34;6212046;28;104147;-61
2022/12/14 01:31:50;;;;;;;5.30;4.90;;;;;;;21.15;30.67;94719.13;6194868;28;103628;-61
2022/12/14 01:34:53;;;;;;;5.30;4.90;;;;;;;21.15;30.72;94721.00;6199721;28;104139;-64
2022/12/14 01:37:56;;;;;;;5.10;4.70;;;;;;;21.16;30.83;94719.91;6210887;28;103138;-63
2022/12/14 01:40:59;;;;;;;6.00;5.50;;;;;;;21.14;30.87;94714.91;6212046;28;103284;-63
2022/12/14 01:44:04;;;;;;;5.97;5.47;;;;;;;21.14;30.69;94701.59;6206856;28;103308;-62
2022/12/14 01:47:16;;;;;;;5.20;4.80;;;;;;;21.13;30.98;94694.72;6203892;28;103327;-63
2022/12/14 01:50:29;;;;;;;5.20;4.80;;;;;;;21.13;30.94;94694.72;6211832;28;103062;-63
2022/12/14 01:53:32;;;;;;;4.87;4.47;;;;;;;21.14;31.04;94684.84;6211178;28;104377;-63
2022/12/14 01:56:38;;;;;;;4.87;4.47;;;;;;;21.14;30.91;94684.84;6201313;28;104903;-62
2022/12/14 01:59:45;;;;;;;5.00;4.60;;;;;;;21.12;30.60;94689.69;6199531;28;103036;-62
2022/12/14 02:02:55;;;;;;;4.40;4.10;;;;;;;21.14;30.62;94687.50;6197631;28;103250;-61
2022/12/14 02:06:03;;;;;;;4.10;3.80;;;;;;;21.13;30.62;94688.59;6210845;28;103123;-62
2022/12/14 02:09:10;;;;;;;4.03;3.73;;;;;;;21.11;30.75;94674.84;6199574;28;104172;-62
2022/12/14 02:12:17;;;;;;;4.70;4.30;;;;;;;21.13;30.89;94669.97;6212294;28;102738;-62
2022/12/14 02:15:20;;;;;;;4.50;4.20;;;;;;;21.14;30.86;94674.22;6210326;28;103196;-63
2022/12/14 02:18:26;;;;;;;4.00;3.80;;;;;;;21.14;30.61;94679.53;6206228;28;104089;-63
2022/12/14 02:21:43;;;;;;;4.10;3.80;;;;;;;21.12;30.89;94671.84;6205029;28;103010;-62
2022/12/14 02:25:00;;;;;;;4.60;4.30;;;;;;;21.12;30.78;94663.88;6210924;28;103351;-63
2022/12/14 02:28:34;;;;;;;4.07;3.77;;;;;;;21.13;30.56;94670.75;6210437;28;103231;-63
2022/12/14 02:31:45;;;;;;;4.10;3.60;;;;;;;21.13;30.71;94657.47;6200083;28;104284;-63
2022/12/14 02:34:59;;;;;;;4.00;3.50;;;;;;;21.13;31.13;94648.69;6210448;28;102999;-61
2022/12/14 02:38:14;;;;;;;4.40;4.10;;;;;;;21.12;30.70;94647.91;6209711;28;103079;-63
2022/12/14 02:41:27;;;;;;;4.30;4.00;;;;;;;21.13;30.70;94646.03;6206521;28;103625;-63
2022/12/14 02:44:37;;;;;;;3.67;3.47;;;;;;;21.12;30.45;94639.16;6205081;28;103110;-63
2022/12/14 02:47:53;;;;;;;4.33;3.90;;;;;;;21.11;30.73;94641.03;6210844;28;104295;-64
2022/12/14 02:51:01;;;;;;;4.43;4.13;;;;;;;21.12;30.98;94650.56;6196613;28;103248;-63
2022/12/14 02:54:12;;;;;;;3.70;3.40;;;;;;;21.11;30.91;94640.25;6200008;28;104325;-64
2022/12/14 02:57:21;;;;;;;3.37;3.17;;;;;;;21.12;30.78;94642.59;6211018;28;102976;-64
2022/12/14 03:00:24;;;;;;;4.27;3.30;;;;;;;21.11;30.73;94637.59;6210703;28;104323;-65
2022/12/14 03:03:29;;;;;;;3.63;3.33;;;;;;;21.10;30.63;94631.47;6191899;28;103568;-63
2022/12/14 03:06:33;;;;;;;3.10;2.90;;;;;;;21.09;30.69;94635.22;6174753;28;104297;-64
2022/12/14 03:09:36;;;;;;;3.30;3.10;;;;;;;21.11;30.66;94638.38;6184863;28;103092;-63
2022/12/14 03:12:42;;;;;;;3.40;3.20;;;;;;;21.11;30.93;94637.59;6198014;28;103141;-64
2022/12/14 03:15:52;;;;;;;3.77;3.47;;;;;;;21.11;30.79;94648.22;6205184;28;104146;-63
2022/12/14 03:19:02;;;;;;;3.80;3.50;;;;;;;21.10;30.42;94634.13;6205222;28;103324;-63
2022/12/14 03:22:10;;;;;;;3.40;3.10;;;;;;;21.10;30.53;94630.69;6209544;28;103498;-63
2022/12/14 03:25:20;;;;;;;3.40;3.20;;;;;;;21.09;30.75;94626.47;6210273;28;104057;-64
2022/12/14 03:28:30;;;;;;;3.50;3.30;;;;;;;21.10;30.85;94633.34;6200105;28;103239;-63
2022/12/14 03:31:40;;;;;;;3.53;3.23;;;;;;;21.11;30.87;94632.25;6210013;28;104255;-64
2022/12/14 03:34:49;;;;;;;3.43;3.23;;;;;;;21.11;30.75;94629.59;6209648;28;103056;-64
2022/12/14 03:37:57;;;;;;;3.50;3.30;;;;;;;21.08;30.53;94632.88;6209571;28;103148;-65
2022/12/14 03:41:08;;;;;;;3.00;2.80;;;;;;;21.10;30.61;94628.03;6198794;28;103300;-64
2022/12/14 03:44:22;;;;;;;3.07;2.87;;;;;;;21.09;30.53;94635.22;6211710;28;104201;-65
2022/12/14 03:47:43;;;;;;;3.40;3.10;;;;;;;21.09;30.64;94637.13;6214452;28;107009;-65
2022/12/14 03:50:53;;;;;;;3.07;2.83;;;;;;;21.09;30.89;94653.84;6202764;28;103789;-65
2022/12/14 03:54:05;;;;;;;3.37;3.07;;;;;;;21.09;30.92;94645.09;6214301;28;104288;-64
2022/12/14 03:57:16;;;;;;;2.97;2.77;;;;;;;21.10;30.52;94636.00;6214239;28;103637;-65
2022/12/14 04:00:22;;;;;;;3.53;3.23;;;;;;;21.12;30.64;94633.81;6213278;28;103246;-65
2022/12/14 04:03:36;;;;;;;3.30;2.70;;;;;;;21.10;30.65;94625.38;6195666;28;103638;-64
2022/12/14 04:06:44;;;;;;;2.80;2.60;;;;;;;21.09;30.59;94645.88;6213080;28;104211;-63
2022/12/14 04:09:52;;;;;;;3.00;2.80;;;;;;;21.09;30.76;94634.44;6212515;28;103093;-64
2022/12/14 04:19:52;;;;;;;3.70;3.40;;;;;;;21.08;30.54;94649.63;6210848;28;103008;-64
2022/12/14 04:23:07;;;;;;;2.80;2.60;;;;;;;21.10;30.72;94641.34;6213337;28;103117;-64
2022/12/14 04:26:14;;;;;;;2.93;2.73;;;;;;;21.10;31.07;94646.66;6199881;28;103197;-66
2022/12/14 04:32:51;;;;;;;2.97;2.77;;;;;;;21.07;31.08;94649.94;6212676;28;103278;-64
2022/12/14 04:35:59;;;;;;;3.00;2.80;;;;;;;21.08;30.81;94644.31;6205655;28;104409;-66
2022/12/14 04:39:06;;;;;;;3.23;2.97;;;;;;;21.07;31.08;94649.94;6208365;28;104713;-66
2022/12/14 04:42:13;;;;;;;3.20;3.00;;;;;;;21.07;30.95;94648.06;6213411;28;103232;-64
2022/12/14 04:45:22;;;;;;;3.17;2.97;;;;;;;21.05;30.95;94641.50;6213048;28;104385;-65
2022/12/14 04:48:32;;;;;;;3.50;2.93;;;;;;;21.06;30.96;94653.69;6202135;28;104406;-65
2022/12/14 04:51:42;;;;;;;3.47;3.17;;;;;;;21.04;31.31;94663.84;6212807;28;104028;-63
2022/12/14 04:54:52;;;;;;;3.40;3.20;;;;;;;21.00;31.33;94657.53;6211760;28;103245;-63
2022/12/14 04:58:00;;;;;;;4.57;4.27;;;;;;;20.97;31.58;94674.13;6207573;28;103027;-63
2022/12/14 05:01:16;;;;;;;3.90;3.60;;;;;;;20.99;31.29;94656.75;6194431;28;103729;-63
2022/12/14 05:04:32;;;;;;;3.30;3.00;;;;;;;21.03;31.47;94659.59;6200422;28;103286;-63
2022/12/14 05:07:46;;;;;;;3.90;3.60;;;;;;;21.07;31.80;94669.34;6212151;28;103397;-61
2022/12/14 05:10:57;;;;;;;3.60;3.30;;;;;;;21.11;31.31;94664.19;6187173;28;105867;-62
2022/12/14 05:14:25;;;;;;;3.37;3.17;;;;;;;21.16;31.41;94648.06;6205617;28;102958;-64
2022/12/14 05:17:28;;;;;;;3.60;3.37;;;;;;;21.22;31.86;94652.19;6207077;28;104228;-63
2022/12/14 05:20:31;;;;;;;3.40;3.20;;;;;;;21.32;31.28;94662.53;6207766;28;103550;-63
2022/12/14 05:23:34;;;;;;;3.70;3.40;;;;;;;21.21;31.75;94671.91;6200951;28;104409;-63
2022/12/14 05:26:39;;;;;;;4.20;3.90;;;;;;;21.12;31.80;94666.53;6209990;28;103032;-63
2022/12/14 05:29:42;;;;;;;4.33;3.93;;;;;;;21.05;31.83;94678.72;6211705;28;103085;-62
2022/12/14 05:32:46;;;;;;;4.50;4.13;;;;;;;21.07;31.71;94684.53;6208435;28;103867;-62
2022/12/14 05:35:49;;;;;;;5.77;5.27;;;;;;;21.26;31.48;94698.38;6206307;28;103950;-64
2022/12/14 05:38:52;;;;;;;5.63;5.10;;;;;;;21.08;31.62;94686.09;6212728;28;103272;-62
2022/12/14 05:41:56;;;;;;;5.03;4.60;;;;;;;21.18;31.68;94713.22;6210042;28;103181;-62
2022/12/14 05:44:59;;;;;;;4.90;4.50;;;;;;;21.20;31.50;94710.25;6199742;28;103308;-63
2022/12/14 05:48:03;;;;;;;4.37;4.07;;;;;;;21.20;31.61;94702.25;6210051;28;103058;-62
2022/12/14 05:51:07;;;;;;;4.70;4.30;;;;;;;21.19;31.53;94703.34;6210584;28;103196;-61
2022/12/14 05:54:10;;;;;;;4.83;4.43;;;;;;;21.19;31.28;94695.38;6211521;28;104177;-62
2022/12/14 05:57:15;;;;;;;4.33;4.03;;;;;;;21.02;31.27;94671.34;6199785;28;103115;-62
2022/12/14 06:00:18;;;;;;;4.33;4.03;;;;;;;21.15;31.31;94699.72;6212907;28;104053;-62
2022/12/14 06:03:21;;;;;;;4.50;4.10;;;;;;;21.13;31.44;94700.03;6212395;28;103493;-63
2022/12/14 06:06:24;;;;;;;4.53;4.13;;;;;;;21.11;31.30;94696.91;6210775;28;103246;-62
2022/12/14 06:09:27;;;;;;;4.30;3.90;;;;;;;21.10;31.05;94699.88;6201368;28;102952;-61
2022/12/14 06:12:32;;;;;;;4.03;3.70;;;;;;;21.08;31.20;94710.03;6211708;28;104039;-63
2022/12/14 06:15:35;;;;;;;4.00;3.70;;;;;;;21.06;31.46;94699.72;6212411;28;104253;-62
2022/12/14 06:18:41;;;;;;;3.80;3.50;;;;;;;21.04;31.32;94706.41;6205688;28;103198;-62
2022/12/14 06:21:44;;;;;;;4.17;3.87;;;;;;;21.03;31.11;94712.81;6208584;28;104294;-61
2022/12/14 06:24:47;;;;;;;4.10;3.80;;;;;;;21.03;31.57;94710.16;6211762;28;103125;-63
2022/12/14 06:27:54;;;;;;;3.90;3.60;;;;;;;21.02;31.41;94711.25;6211154;28;103092;-62
2022/12/14 06:30:57;;;;;;;3.60;3.40;;;;;;;21.00;31.21;94722.16;6201662;28;104033;-62
2022/12/14 06:34:03;;;;;;;3.80;3.50;;;;;;;20.99;31.25;94733.91;6211952;28;104002;-62
2022/12/14 06:37:06;;;;;;;3.90;3.60;;;;;;;20.99;31.26;94735.78;6211635;28;103207;-62
2022/12/14 06:40:10;;;;;;;3.80;3.50;;;;;;;20.98;31.31;94734.19;6212231;28;103611;-62
2022/12/14 06:43:15;;;;;;;3.80;3.50;;;;;;;20.98;31.32;94731.53;6200264;28;103882;-63
2022/12/14 06:46:20;;;;;;;4.00;3.70;;;;;;;20.97;31.50;94732.63;6211690;28;103286;-62
2022/12/14 06:49:23;;;;;;;3.80;3.50;;;;;;;20.97;31.18;94724.66;6209893;28;103239;-62
2022/12/14 06:52:26;;;;;;;3.70;3.40;;;;;;;20.97;31.20;94717.47;6207184;28;103845;-62
2022/12/14 06:55:29;;;;;;;3.43;3.13;;;;;;;20.99;31.20;94722.47;6204884;28;103062;-62
2022/12/14 06:58:34;;;;;;;4.00;3.70;;;;;;;20.98;30.98;94719.03;6210536;28;103354;-62
2022/12/14 07:01:38;;;;;;;3.70;3.40;;;;;;;21.00;31.10;94732.03;6211523;28;104184;-62
2022/12/14 07:04:41;;;;;;;3.73;3.43;;;;;;;20.99;31.17;94714.50;6201771;28;105377;-62
2022/12/14 07:07:44;;;;;;;3.80;3.50;;;;;;;21.01;30.80;94730.97;6210985;28;103467;-63
2022/12/14 07:10:47;;;;;;;3.23;2.93;;;;;;;21.02;30.86;94748.47;6211180;28;104246;-63
2022/12/14 07:13:53;;;;;;;3.47;3.27;;;;;;;20.96;30.89;94747.03;6211362;28;103241;-61
2022/12/14 07:16:56;;;;;;;3.40;3.20;;;;;;;21.03;30.77;94752.72;6200336;28;103332;-61
2022/12/14 07:19:59;;;;;;;3.83;3.53;;;;;;;21.03;30.91;94747.41;6208927;28;103593;-62
2022/12/14 07:23:02;;;;;;;3.50;3.30;;;;;;;21.01;30.70;94738.94;6210931;28;103814;-62
2022/12/14 07:26:07;;;;;;;3.20;3.00;;;;;;;21.02;30.69;94730.66;6209988;28;103359;-62
2022/12/14 07:29:13;;;;;;;3.80;3.50;;;;;;;21.01;30.85;94736.28;6201860;28;103219;-63
2022/12/14 07:32:16;;;;;;;3.43;3.23;;;;;;;21.04;30.74;94747.09;6211111;28;104026;-62
2022/12/14 07:35:19;;;;;;;3.30;3.07;;;;;;;21.03;30.59;94748.19;6210505;28;103200;-61
2022/12/14 07:38:23;;;;;;;3.10;2.90;;;;;;;21.03;30.43;94737.53;6201187;28;104794;-62
2022/12/14 07:41:29;;;;;;;3.53;3.23;;;;;;;20.97;30.52;94740.63;6210167;28;103245;-61
2022/12/14 07:44:34;;;;;;;3.33;3.13;;;;;;;21.02;30.82;94761.78;6210852;28;103141;-61
2022/12/14 07:47:37;;;;;;;3.40;3.20;;;;;;;21.02;30.75;94759.13;6210467;28;104308;-62
2022/12/14 07:50:40;;;;;;;3.60;3.27;;;;;;;21.03;30.88;94758.81;6200101;28;104062;-62
2022/12/14 07:53:43;;;;;;;3.30;3.00;;;;;;;21.02;30.89;94754.59;6210300;28;103319;-63
2022/12/14 07:56:46;;;;;;;3.77;3.47;;;;;;;21.02;30.50;94751.16;6210208;28;104333;-63
2022/12/14 07:59:52;;;;;;;3.30;3.00;;;;;;;21.03;30.74;94760.69;6210095;28;103040;-63
2022/12/14 08:02:59;;;;;;;3.33;3.13;;;;;;;21.01;30.54;94746.91;6199696;28;103067;-62
2022/12/14 08:06:04;;;;;;;3.50;3.20;;;;;;;21.01;30.65;94744.25;6210299;28;103237;-62
2022/12/14 08:09:10;;;;;;;3.10;2.90;;;;;;;20.92;30.49;94741.53;6210034;28;103642;-63
2022/12/14 08:12:13;;;;;;;3.57;3.30;;;;;;;20.98;30.54;94756.25;6204100;28;103063;-63
2022/12/14 08:15:18;;;;;;;3.60;3.30;;;;;;;20.98;30.59;94752.81;6206343;28;104135;-63
2022/12/14 08:18:21;;;;;;;3.50;3.30;;;;;;;20.99;30.79;94762.38;6209778;28;104592;-63
2022/12/14 08:21:25;;;;;;;4.10;3.80;;;;;;;20.91;30.45;94771.88;6209112;28;103200;-62
2022/12/14 08:24:28;;;;;;;3.77;3.47;;;;;;;20.98;30.91;94776.75;6198812;28;104198;-62
2022/12/14 08:27:31;;;;;;;3.27;3.07;;;;;;;20.99;30.75;94783.66;6209761;28;104016;-62
2022/12/14 08:30:38;;;;;;;2.90;2.70;;;;;;;20.99;30.99;94778.34;6211430;28;104072;-62
2022/12/14 08:33:42;;;;;;;3.23;3.03;;;;;;;20.99;30.88;94784.44;6213723;28;103070;-62
2022/12/14 08:36:45;;;;;;;3.47;3.27;;;;;;;20.99;30.76;94781.00;6202904;28;103641;-63
2022/12/14 08:39:48;;;;;;;4.23;3.53;;;;;;;21.01;30.52;94792.13;6212861;28;103127;-63
2022/12/14 08:42:51;;;;;;;3.20;3.00;;;;;;;20.97;30.81;94781.31;6214227;28;104122;-62
2022/12/14 08:45:56;;;;;;;3.40;3.20;;;;;;;21.00;30.94;94777.25;6209080;28;104419;-61
2022/12/14 08:49:00;;;;;;;3.60;3.30;;;;;;;21.01;30.86;94760.22;6208096;28;104092;-62
2022/12/14 08:52:03;;;;;;;3.30;3.10;;;;;;;21.00;30.57;94759.41;6212484;28;103035;-62
2022/12/14 08:55:06;;;;;;;3.07;2.87;;;;;;;20.97;30.49;94757.34;6213513;28;104992;-64
2022/12/14 08:58:10;;;;;;;2.97;2.77;;;;;;;21.02;30.86;94769.78;6202779;28;104971;-61
2022/12/14 09:01:17;;;;;;;3.10;2.90;;;;;;;21.01;31.00;94770.84;6212981;28;103280;-63
2022/12/14 09:04:20;;;;;;;3.23;3.03;;;;;;;21.01;30.69;94760.22;6213675;28;104600;-62
2022/12/14 09:07:23;;;;;;;3.37;3.07;;;;;;;21.01;31.15;94760.22;6213442;28;104036;-62
2022/12/14 09:10:26;;;;;;;3.77;3.47;;;;;;;21.02;30.79;94756.47;6202349;28;104438;-63
2022/12/14 09:13:29;;;;;;;3.10;2.90;;;;;;;21.02;30.75;94751.16;6213473;28;103168;-62
2022/12/14 09:16:35;;;;;;;3.00;2.80;;;;;;;20.92;30.67;94741.53;6212937;28;103351;-62
2022/12/14 09:19:38;;;;;;;3.20;3.00;;;;;;;21.03;30.95;94753.50;6213408;28;103198;-61
2022/12/14 09:22:41;;;;;;;3.23;3.03;;;;;;;21.01;30.63;94749.56;6202093;28;102955;-62
2022/12/14 09:25:44;;;;;;;2.93;2.73;;;;;;;21.01;30.87;94733.63;6212716;28;104107;-63
2022/12/14 09:28:49;;;;;;;3.77;3.47;;;;;;;21.02;30.75;94735.19;6213351;28;103990;-62
2022/12/14 09:31:54;;;;;;;3.57;3.27;;;;;;;21.00;30.66;94747.97;6202903;28;103161;-64
2022/12/14 09:34:58;;;;;;;3.10;2.90;;;;;;;21.00;30.81;94740.78;6212564;28;104057;-62
2022/12/14 09:38:01;;;;;;;3.00;2.80;;;;;;;20.99;30.76;94736.56;6212638;28;103129;-62
2022/12/14 09:41:07;;;;;;;3.17;2.97;;;;;;;21.00;30.70;94724.03;6211375;28;104073;-62
2022/12/14 09:44:17;;;;;;;3.27;2.97;;;;;;;21.00;30.59;94721.38;6202352;28;103271;-63
2022/12/14 09:47:28;;;;;;;3.67;3.43;;;;;;;21.00;30.80;94727.47;6212295;28;104301;-62
2022/12/14 09:50:32;;;;;;;2.93;2.73;;;;;;;21.00;30.80;94726.69;6212036;28;103156;-62
2022/12/14 09:53:36;;;;;;;3.20;3.00;;;;;;;21.00;30.94;94726.69;6211182;28;103154;-62
2022/12/14 09:56:41;;;;;;;3.33;3.13;;;;;;;21.00;30.39;94724.81;6202195;28;104041;-62
2022/12/14 09:59:44;;;;;;;2.83;2.63;;;;;;;21.00;30.76;94727.47;6211640;28;104251;-65
2022/12/14 10:03:14;;;;;;;2.77;2.57;;;;;;;20.99;30.73;94725.91;6211447;28;103382;-62
2022/12/14 10:06:34;;;;;;;2.90;2.70;;;;;;;21.00;30.53;94722.16;6201391;28;103500;-62
2022/12/14 10:09:46;;;;;;;2.77;2.57;;;;;;;21.01;30.93;94705.13;6210815;28;103321;-62
2022/12/14 10:12:59;;;;;;;3.20;3.00;;;;;;;20.99;31.04;94699.31;6211642;28;103292;-62
2022/12/14 10:16:13;;;;;;;3.00;2.80;;;;;;;20.99;30.63;94698.53;6211751;28;104193;-62
2022/12/14 10:19:31;;;;;;;2.87;2.67;;;;;;;20.99;30.86;94698.53;6201536;28;103181;-62
2022/12/14 10:22:40;;;;;;;3.30;3.00;;;;;;;20.99;30.90;94695.88;6211047;28;103106;-63
2022/12/14 10:25:45;;;;;;;3.20;3.00;;;;;;;20.99;30.54;94687.88;6210769;28;104212;-63
2022/12/14 10:28:55;;;;;;;3.40;3.10;;;;;;;20.99;30.81;94685.22;6201349;28;103180;-63
2022/12/14 10:32:19;;;;;;;3.23;3.03;;;;;;;20.93;30.61;94674.75;6211276;28;104197;-62
2022/12/14 10:35:35;;;;;;;3.27;3.07;;;;;;;20.99;30.67;94677.25;6211718;28;104217;-63
2022/12/14 10:38:46;;;;;;;3.20;2.90;;;;;;;21.01;30.65;94680.41;6210846;28;103077;-63
2022/12/14 10:41:58;;;;;;;3.17;2.97;;;;;;;21.02;30.67;94655.38;6200776;28;104185;-62
2022/12/14 10:45:17;;;;;;;2.60;2.40;;;;;;;21.03;30.79;94667.59;6211263;28;104188;-62
2022/12/14 10:48:47;;;;;;;2.83;2.63;;;;;;;20.96;30.69;94651.28;6211240;28;103605;-64
2022/12/14 10:51:57;;;;;;;3.30;3.00;;;;;;;21.03;30.53;94657.72;6200205;28;103060;-63
2022/12/14 10:55:04;;;;;;;3.07;2.87;;;;;;;21.03;30.85;94662.28;6210353;28;104007;-61
2022/12/14 10:58:09;;;;;;;3.20;3.00;;;;;;;21.05;30.72;94662.78;6210041;28;103050;-62
2022/12/14 11:01:14;;;;;;;3.07;2.87;;;;;;;21.06;30.56;94653.69;6210302;28;103301;-62
2022/12/14 11:04:29;;;;;;;2.50;2.40;;;;;;;21.04;30.91;94650.53;6199838;28;103258;-62
2022/12/14 11:07:41;;;;;;;2.93;2.73;;;;;;;21.05;30.56;94654.78;6210915;28;104338;-62
2022/12/14 11:10:44;;;;;;;2.40;2.30;;;;;;;21.05;30.72;94638.81;6210816;28;104065;-62
2022/12/14 11:13:50;;;;;;;2.70;2.50;;;;;;;21.05;30.98;94642.28;6205911;28;103708;-62
2022/12/14 11:16:53;;;;;;;2.70;2.50;;;;;;;21.05;30.68;94644.94;6204855;28;103121;-62
2022/12/14 11:20:15;;;;;;;2.60;2.40;;;;;;;21.04;30.68;94630.03;6210826;28;102975;-62
2022/12/14 11:23:21;;;;;;;2.80;2.60;;;;;;;21.06;30.98;94627.88;6209813;28;103279;-62
2022/12/14 11:26:28;;;;;;;2.80;2.60;;;;;;;21.07;30.76;94628.66;6200318;28;103988;-62
2022/12/14 11:29:35;;;;;;;2.67;2.47;;;;;;;21.05;30.69;94628.19;6209745;28;103386;-61
2022/12/14 11:32:38;;;;;;;3.37;3.00;;;;;;;21.06;30.59;94630.53;6210600;28;104549;-62
2022/12/14 11:35:50;;;;;;;3.10;2.80;;;;;;;21.06;30.74;94630.53;6210330;28;103088;-62
2022/12/14 11:38:59;;;;;;;3.83;2.90;;;;;;;21.07;30.81;94621.47;6199729;28;103266;-62
2022/12/14 11:42:03;;;;;;;3.00;2.80;;;;;;;21.07;30.67;94616.13;6210627;28;104339;-61
2022/12/14 11:45:29;;;;;;;3.10;2.90;;;;;;;21.08;30.72;94616.91;6209739;28;103526;-62
2022/12/14 11:48:35;;;;;;;3.03;2.73;;;;;;;21.07;30.75;94610.03;6199467;28;103241;-62
2022/12/14 11:51:53;;;;;;;2.97;2.77;;;;;;;21.06;30.64;94611.13;6210137;28;103302;-62
2022/12/14 11:55:12;;;;;;;2.87;2.67;;;;;;;21.06;30.66;94614.56;6209975;28;103112;-63
2022/12/14 11:58:21;;;;;;;3.40;3.13;;;;;;;21.07;30.93;94615.34;6209328;28;104275;-62
2022/12/14 12:01:26;;;;;;;3.10;2.90;;;;;;;21.05;30.87;94613.00;6198031;28;104289;-63
2022/12/14 12:04:29;;;;;;;3.23;3.03;;;;;;;21.05;30.66;94613.00;6211314;28;103561;-63
2022/12/14 12:07:37;;;;;;;3.20;2.90;;;;;;;21.04;30.60;94605.31;6213844;28;103925;-63
2022/12/14 12:10:45;;;;;;;3.00;2.80;;;;;;;20.92;30.86;94589.94;6205114;28;103705;-63
2022/12/14 12:13:56;;;;;;;2.90;2.70;;;;;;;20.98;30.72;94598.53;6213521;28;104058;-63
2022/12/14 12:17:00;;;;;;;2.80;2.60;;;;;;;21.04;30.84;94611.41;6214278;28;103228;-63
2022/12/14 12:20:12;;;;;;;3.07;2.83;;;;;;;21.03;30.81;94599.22;6214347;28;103532;-62
2022/12/14 12:23:19;;;;;;;3.20;3.00;;;;;;;20.96;30.89;94587.44;6202829;28;103863;-63
2022/12/14 12:26:28;;;;;;;2.77;2.57;;;;;;;20.96;30.88;94587.44;6214087;28;103875;-63
2022/12/14 12:29:36;;;;;;;3.30;3.10;;;;;;;21.02;30.82;94591.53;6213296;28;103091;-62
2022/12/14 12:32:44;;;;;;;2.70;2.50;;;;;;;21.00;30.77;94588.38;6210395;28;104122;-63
2022/12/14 12:35:54;;;;;;;2.90;2.70;;;;;;;20.96;30.74;94604.19;6207622;28;103614;-62
2022/12/14 12:39:03;;;;;;;3.37;3.07;;;;;;;20.99;30.93;94602.78;6213854;28;104030;-62
2022/12/14 12:42:20;;;;;;;3.10;2.80;;;;;;;21.00;30.74;94613.09;6213685;28;103311;-61
2022/12/14 12:45:29;;;;;;;2.90;2.70;;;;;;;21.01;30.65;94616.56;6202569;28;104130;-62
2022/12/14 12:48:38;;;;;;;3.10;2.80;;;;;;;20.99;30.96;94603.56;6213991;28;104045;-63
2022/12/14 12:51:46;;;;;;;2.67;2.47;;;;;;;21.00;30.77;94610.44;6212798;28;103239;-63
2022/12/14 12:54:56;;;;;;;2.90;2.70;;;;;;;21.01;30.67;94605.94;6213473;28;104088;-63
2022/12/14 12:58:08;;;;;;;2.67;2.47;;;;;;;21.00;30.94;94599.03;6202646;28;104054;-63
2022/12/14 13:01:22;;;;;;;3.67;3.17;;;;;;;21.02;30.89;94594.19;6213236;28;103105;-63
2022/12/14 13:04:31;;;;;;;3.10;2.90;;;;;;;21.02;30.94;94592.31;6212752;28;104139;-63
2022/12/14 13:07:38;;;;;;;3.03;2.83;;;;;;;21.00;31.05;94591.81;6202866;28;104487;-62
2022/12/14 13:10:44;;;;;;;3.17;2.87;;;;;;;21.04;30.70;94589.34;6213144;28;105900;-62
2022/12/14 13:14:23;;;;;;;2.67;2.47;;;;;;;21.02;30.75;94591.53;6212475;28;105874;-61
2022/12/14 13:17:34;;;;;;;3.10;2.60;;;;;;;21.05;30.45;94593.59;6212535;28;103278;-62
2022/12/14 13:20:37;;;;;;;2.93;2.73;;;;;;;21.05;30.91;94604.25;6201750;28;104106;-62
2022/12/14 13:23:40;;;;;;;2.90;2.70;;;;;;;21.04;30.78;94605.31;6213050;28;103432;-62
2022/12/14 13:27:14;;;;;;;3.27;2.50;;;;;;;21.05;30.81;94604.25;6213477;28;103394;-63
2022/12/14 13:30:33;;;;;;;2.60;2.40;;;;;;;21.04;30.87;94605.31;6202653;28;103036;-62
2022/12/14 13:34:03;;;;;;;2.70;2.50;;;;;;;20.94;30.70;94590.41;6212511;28;103218;-62
2022/12/14 13:37:38;;;;;;;2.70;2.50;;;;;;;21.05;30.72;94601.59;6210947;28;103283;-62
2022/12/14 13:41:05;;;;;;;2.80;2.60;;;;;;;21.05;30.83;94596.25;6212412;28;103083;-62
2022/12/14 13:44:35;;;;;;;2.70;2.50;;;;;;;21.05;30.47;94593.59;6205998;28;103893;-62
2022/12/14 13:47:52;;;;;;;2.93;2.73;;;;;;;21.05;30.58;94596.25;6212265;28;104079;-63
2022/12/14 13:50:59;;;;;;;2.80;2.60;;;;;;;21.05;30.89;94597.03;6211875;28;103077;-62
2022/12/14 13:54:07;;;;;;;2.60;2.40;;;;;;;21.05;31.02;94590.94;6201405;28;103774;-62
2022/12/14 13:57:13;;;;;;;2.77;2.57;;;;;;;21.04;30.88;94578.72;6211935;28;104063;-61
2022/12/14 14:01:02;;;;;;;2.70;2.50;;;;;;;21.03;30.65;94567.28;6212327;28;102972;-62
2022/12/14 14:04:23;;;;;;;3.10;2.90;;;;;;;20.99;30.96;94545.03;6160495;28;103354;-62
2022/12/14 14:07:48;;;;;;;3.10;2.77;;;;;;;20.99;31.06;94544.25;6211179;28;103081;-61
2022/12/14 14:10:51;;;;;;;2.57;2.37;;;;;;;21.01;30.71;94542.09;6211445;28;104090;-63
2022/12/14 14:14:36;;;;;;;2.63;2.43;;;;;;;21.00;30.77;94543.16;6211648;28;102738;-63
2022/12/14 14:17:42;;;;;;;2.40;2.20;;;;;;;20.99;31.02;94549.56;6201895;28;103087;-63
2022/12/14 14:20:48;;;;;;;2.70;2.50;;;;;;;20.84;30.65;94527.66;6211476;28;102668;-63
2022/12/14 14:24:00;;;;;;;2.57;2.37;;;;;;;20.96;31.20;94542.22;6211842;28;103049;-61
2022/12/14 14:27:18;;;;;;;2.70;2.50;;;;;;;;;;6200834;28;105266;-62
2022/12/14 14:30:26;;;;;;;2.40;2.30;;;;;;;20.94;30.87;94547.84;6211550;28;103086;-62
2022/12/14 14:33:35;;;;;;;2.77;2.57;;;;;;;20.87;30.88;94526.25;6211737;28;103271;-62
2022/12/14 14:36:50;;;;;;;2.73;2.53;;;;;;;20.94;30.75;94531.91;6211081;28;104109;-63
2022/12/14 14:39:59;;;;;;;2.43;2.23;;;;;;;;;;6201042;28;103318;-62
2022/12/14 14:43:30;;;;;;;2.73;2.53;;;;;;;20.95;30.81;94524.69;6210615;28;104218;-62
2022/12/14 14:46:36;;;;;;;2.67;2.47;;;;;;;20.96;30.52;94519.06;6210916;28;103001;-62
2022/12/14 14:49:43;;;;;;;2.63;2.37;;;;;;;20.98;30.63;94524.84;6202659;28;104009;-62